Impacts METAR Board
IDs:

KPHL - Philadelphia Intl, PA, US

Updated at: 1200 UTC 05 Apr 2020
Potential Impact None Slight Moderate High
Time 05/00Z 05/01Z 05/02Z 05/03Z 05/04Z 05/05Z 05/06Z 05/07Z 05/08Z 05/09Z 05/10Z 05/11Z 05/12Z
Temp52 52 51 49 49 48 49 47 45 45 46 47 49
Dewpt42 43 43 43 44 43 44 43 42 42 43 43 44
Altim30.03 30.04 30.04 30.05 30.05 30.05 30.05 30.05 30.05 30.04 30.05 30.06 30.08
VIS10 10 10 10 10 10 10 10 10 10 10 10 10
CIG37 -- -- -- 60 60 55 -- 55 -- 65 60 60
CoverBKNSCTFEWFEWBKNBKNBKNSCTBKNSCTBKNBKNOVC
FltCatVFRVFRVFRVFRVFRVFRVFRVFRVFRVFRVFRVFRVFR
WX--------------------------
WDir190210240220190200220210200210240220210
WSpd3 4 6 6 6 6 3 3 5 4 3 5 3
WGst-- -- -- -- -- -- -- -- -- -- -- -- --
Raw hourly METARs
KPHL 042354Z 19003KT 10SM BKN037 11/06 A3003 RMK AO2 SLP167 T01110056 10139 20111 51007
KPHL 050054Z 21004KT 10SM FEW035 SCT130 11/06 A3004 RMK AO2 SLP172 T01110061
KPHL 050154Z 24006KT 10SM FEW130 11/06 A3004 RMK AO2 SLP173 T01060061
KPHL 050254Z 22006KT 10SM FEW130 09/06 A3005 RMK AO2 SLP175 T00940061 51008
KPHL 050354Z 19006KT 10SM BKN060 BKN130 09/07 A3005 RMK AO2 SLP176 T00940067
KPHL 050454Z 20006KT 10SM BKN060 09/06 A3005 RMK AO2 SLP177 T00890061 401390089
KPHL 050554Z 22003KT 10SM BKN055 09/07 A3005 RMK AO2 SLP176 T00940067 10111 20089 50001
KPHL 050654Z 21003KT 10SM SCT055 08/06 A3005 RMK AO2 SLP175 T00830061
KPHL 050754Z 20005KT 10SM BKN055 07/06 A3005 RMK AO2 SLP174 T00720056
KPHL 050854Z 21004KT 10SM SCT055 07/06 A3004 RMK AO2 SLP173 T00720056 58003
KPHL 050954Z 24003KT 10SM BKN065 08/06 A3005 RMK AO2 SLP174 T00780061
KPHL 051054Z 22005KT 10SM BKN060 08/06 A3006 RMK AO2 SLP179 T00830061
KPHL 051154Z 21003KT 10SM OVC060 09/07 A3008 RMK AO2 SLP184 T00940067 10094 20061 53012



Page loaded:  12:05 UTC  |   05:05 AM Pacific  |   06:05 AM Mountain  |   07:05 AM Central  |   08:05 AM Eastern

 

ADVISORIES

FORECASTS

FORECASTS

OBSERVATIONS

USER TOOLS

ABOUT US